sensor_id;sensor_type;location;lat;lon;timestamp;P1;durP1;ratioP1;P2;durP2;ratioP2
56927;SDS011;60850;52.502;13.426;2023-02-21T00:01:50;6.10;;;3.13;;
56927;SDS011;60850;52.502;13.426;2023-02-21T00:04:35;7.13;;;3.08;;
56927;SDS011;60850;52.502;13.426;2023-02-21T00:07:19;6.68;;;3.33;;
56927;SDS011;60850;52.502;13.426;2023-02-21T00:10:05;5.45;;;2.55;;
56927;SDS011;60850;52.502;13.426;2023-02-21T00:12:52;6.75;;;3.10;;
56927;SDS011;60850;52.502;13.426;2023-02-21T00:15:36;8.35;;;3.70;;
56927;SDS011;60850;52.502;13.426;2023-02-21T00:18:20;6.90;;;3.58;;
56927;SDS011;60850;52.502;13.426;2023-02-21T00:21:05;5.28;;;3.08;;
56927;SDS011;60850;52.502;13.426;2023-02-21T00:23:49;7.45;;;3.22;;
56927;SDS011;60850;52.502;13.426;2023-02-21T00:26:33;6.43;;;3.60;;
56927;SDS011;60850;52.502;13.426;2023-02-21T00:29:19;6.03;;;3.17;;
56927;SDS011;60850;52.502;13.426;2023-02-21T00:32:03;5.35;;;2.88;;
56927;SDS011;60850;52.502;13.426;2023-02-21T00:34:48;6.05;;;2.85;;
56927;SDS011;60850;52.502;13.426;2023-02-21T00:37:33;6.05;;;2.83;;
56927;SDS011;60850;52.502;13.426;2023-02-21T00:40:17;7.60;;;3.72;;
56927;SDS011;60850;52.502;13.426;2023-02-21T00:43:02;6.88;;;3.47;;
56927;SDS011;60850;52.502;13.426;2023-02-21T00:45:48;6.38;;;3.22;;
56927;SDS011;60850;52.502;13.426;2023-02-21T00:48:32;5.47;;;3.40;;
56927;SDS011;60850;52.502;13.426;2023-02-21T00:51:16;6.90;;;3.13;;
56927;SDS011;60850;52.502;13.426;2023-02-21T00:54:01;6.80;;;4.07;;
56927;SDS011;60850;52.502;13.426;2023-02-21T00:56:45;5.85;;;3.10;;
56927;SDS011;60850;52.502;13.426;2023-02-21T00:59:30;5.32;;;3.22;;
56927;SDS011;60850;52.502;13.426;2023-02-21T01:02:15;7.80;;;3.92;;
56927;SDS011;60850;52.502;13.426;2023-02-21T01:05:00;8.20;;;3.72;;
56927;SDS011;60850;52.502;13.426;2023-02-21T01:10:29;7.40;;;3.75;;
56927;SDS011;60850;52.502;13.426;2023-02-21T01:13:13;7.28;;;3.60;;
56927;SDS011;60850;52.502;13.426;2023-02-21T01:15:57;7.63;;;3.50;;
56927;SDS011;60850;52.502;13.426;2023-02-21T01:18:43;7.45;;;4.22;;
56927;SDS011;60850;52.502;13.426;2023-02-21T01:21:28;7.50;;;3.90;;
56927;SDS011;60850;52.502;13.426;2023-02-21T01:24:12;7.68;;;3.80;;
56927;SDS011;60850;52.502;13.426;2023-02-21T01:27:00;7.20;;;4.13;;
56927;SDS011;60850;52.502;13.426;2023-02-21T01:29:44;7.82;;;4.13;;
56927;SDS011;60850;52.502;13.426;2023-02-21T01:32:30;8.52;;;4.28;;
56927;SDS011;60850;52.502;13.426;2023-02-21T01:35:16;8.90;;;4.72;;
56927;SDS011;60850;52.502;13.426;2023-02-21T01:38:00;8.32;;;3.80;;
56927;SDS011;60850;52.502;13.426;2023-02-21T01:40:45;8.70;;;4.60;;
56927;SDS011;60850;52.502;13.426;2023-02-21T01:43:29;9.43;;;4.20;;
56927;SDS011;60850;52.502;13.426;2023-02-21T01:46:14;9.43;;;4.43;;
56927;SDS011;60850;52.502;13.426;2023-02-21T01:49:01;9.93;;;4.88;;
56927;SDS011;60850;52.502;13.426;2023-02-21T01:51:49;9.88;;;5.00;;
56927;SDS011;60850;52.502;13.426;2023-02-21T01:54:39;8.82;;;4.68;;
56927;SDS011;60850;52.502;13.426;2023-02-21T01:57:27;8.57;;;4.00;;
56927;SDS011;60850;52.502;13.426;2023-02-21T02:00:12;10.95;;;5.70;;
56927;SDS011;60850;52.502;13.426;2023-02-21T02:02:58;9.55;;;4.88;;
56927;SDS011;60850;52.502;13.426;2023-02-21T02:05:49;10.27;;;4.88;;
56927;SDS011;60850;52.502;13.426;2023-02-21T02:08:37;10.05;;;5.18;;
56927;SDS011;60850;52.502;13.426;2023-02-21T02:11:27;9.40;;;4.80;;
56927;SDS011;60850;52.502;13.426;2023-02-21T02:17:16;9.90;;;5.53;;
56927;SDS011;60850;52.502;13.426;2023-02-21T02:20:06;12.68;;;5.65;;
56927;SDS011;60850;52.502;13.426;2023-02-21T02:22:56;9.57;;;5.00;;
56927;SDS011;60850;52.502;13.426;2023-02-21T02:25:42;10.13;;;5.03;;
56927;SDS011;60850;52.502;13.426;2023-02-21T02:28:32;10.82;;;5.57;;
56927;SDS011;60850;52.502;13.426;2023-02-21T02:37:13;9.48;;;5.35;;
56927;SDS011;60850;52.502;13.426;2023-02-21T02:39:50;11.32;;;5.00;;
56927;SDS011;60850;52.502;13.426;2023-02-21T02:42:26;11.20;;;5.20;;
56927;SDS011;60850;52.502;13.426;2023-02-21T02:45:04;10.10;;;4.82;;
56927;SDS011;60850;52.502;13.426;2023-02-21T02:47:37;12.23;;;6.13;;
56927;SDS011;60850;52.502;13.426;2023-02-21T02:50:10;12.68;;;5.82;;
56927;SDS011;60850;52.502;13.426;2023-02-21T02:52:42;12.13;;;5.65;;
56927;SDS011;60850;52.502;13.426;2023-02-21T02:55:23;11.85;;;5.90;;
56927;SDS011;60850;52.502;13.426;2023-02-21T02:57:56;8.45;;;4.72;;
56927;SDS011;60850;52.502;13.426;2023-02-21T03:00:24;10.35;;;5.38;;
56927;SDS011;60850;52.502;13.426;2023-02-21T03:02:55;13.35;;;5.68;;
56927;SDS011;60850;52.502;13.426;2023-02-21T03:05:38;10.10;;;5.07;;
56927;SDS011;60850;52.502;13.426;2023-02-21T03:08:17;13.90;;;6.72;;
56927;SDS011;60850;52.502;13.426;2023-02-21T03:10:51;12.70;;;6.00;;
56927;SDS011;60850;52.502;13.426;2023-02-21T03:13:24;10.43;;;5.65;;
56927;SDS011;60850;52.502;13.426;2023-02-21T03:16:03;12.88;;;5.95;;
56927;SDS011;60850;52.502;13.426;2023-02-21T03:18:36;10.65;;;5.57;;
56927;SDS011;60850;52.502;13.426;2023-02-21T03:21:10;11.10;;;5.45;;
56927;SDS011;60850;52.502;13.426;2023-02-21T03:23:40;12.63;;;6.20;;
56927;SDS011;60850;52.502;13.426;2023-02-21T03:26:10;9.52;;;4.82;;
56927;SDS011;60850;52.502;13.426;2023-02-21T03:28:40;9.40;;;5.07;;
56927;SDS011;60850;52.502;13.426;2023-02-21T03:31:07;13.10;;;5.82;;
56927;SDS011;60850;52.502;13.426;2023-02-21T03:33:38;10.20;;;5.63;;
56927;SDS011;60850;52.502;13.426;2023-02-21T03:36:05;12.57;;;6.20;;
56927;SDS011;60850;52.502;13.426;2023-02-21T03:38:35;11.55;;;5.75;;
56927;SDS011;60850;52.502;13.426;2023-02-21T03:41:03;10.40;;;5.57;;
56927;SDS011;60850;52.502;13.426;2023-02-21T03:43:32;11.75;;;5.47;;
56927;SDS011;60850;52.502;13.426;2023-02-21T03:45:59;10.32;;;5.43;;
56927;SDS011;60850;52.502;13.426;2023-02-21T03:48:26;11.00;;;5.35;;
56927;SDS011;60850;52.502;13.426;2023-02-21T03:50:53;10.38;;;5.68;;
56927;SDS011;60850;52.502;13.426;2023-02-21T03:53:19;10.70;;;5.40;;
56927;SDS011;60850;52.502;13.426;2023-02-21T03:55:48;9.07;;;4.90;;
56927;SDS011;60850;52.502;13.426;2023-02-21T03:58:15;9.18;;;5.13;;
56927;SDS011;60850;52.502;13.426;2023-02-21T04:00:42;10.55;;;5.07;;
56927;SDS011;60850;52.502;13.426;2023-02-21T04:03:09;11.98;;;5.80;;
56927;SDS011;60850;52.502;13.426;2023-02-21T04:05:36;11.82;;;5.82;;
56927;SDS011;60850;52.502;13.426;2023-02-21T04:08:03;10.18;;;4.93;;
56927;SDS011;60850;52.502;13.426;2023-02-21T04:10:31;11.48;;;5.60;;
56927;SDS011;60850;52.502;13.426;2023-02-21T04:12:59;11.35;;;5.35;;
56927;SDS011;60850;52.502;13.426;2023-02-21T04:15:26;10.77;;;6.00;;
56927;SDS011;60850;52.502;13.426;2023-02-21T04:17:53;9.13;;;5.00;;
56927;SDS011;60850;52.502;13.426;2023-02-21T04:20:20;10.57;;;5.40;;
56927;SDS011;60850;52.502;13.426;2023-02-21T04:22:46;9.95;;;5.55;;
56927;SDS011;60850;52.502;13.426;2023-02-21T04:25:13;10.40;;;5.50;;
56927;SDS011;60850;52.502;13.426;2023-02-21T04:27:40;9.85;;;4.80;;
56927;SDS011;60850;52.502;13.426;2023-02-21T04:30:10;10.77;;;5.57;;
56927;SDS011;60850;52.502;13.426;2023-02-21T04:32:37;10.07;;;5.20;;
56927;SDS011;60850;52.502;13.426;2023-02-21T04:35:04;10.68;;;5.30;;
56927;SDS011;60850;52.502;13.426;2023-02-21T04:37:31;10.13;;;5.22;;
56927;SDS011;60850;52.502;13.426;2023-02-21T04:39:58;10.27;;;5.10;;
56927;SDS011;60850;52.502;13.426;2023-02-21T04:42:25;9.20;;;5.22;;
56927;SDS011;60850;52.502;13.426;2023-02-21T04:44:52;10.95;;;5.57;;
56927;SDS011;60850;52.502;13.426;2023-02-21T04:47:20;11.43;;;5.60;;
56927;SDS011;60850;52.502;13.426;2023-02-21T04:49:47;10.43;;;5.35;;
56927;SDS011;60850;52.502;13.426;2023-02-21T04:52:16;10.68;;;5.32;;
56927;SDS011;60850;52.502;13.426;2023-02-21T04:54:45;10.60;;;5.78;;
56927;SDS011;60850;52.502;13.426;2023-02-21T04:57:13;10.35;;;5.57;;
56927;SDS011;60850;52.502;13.426;2023-02-21T04:59:40;10.63;;;5.18;;
56927;SDS011;60850;52.502;13.426;2023-02-21T05:02:07;10.70;;;5.63;;
56927;SDS011;60850;52.502;13.426;2023-02-21T05:04:36;17.20;;;7.28;;
56927;SDS011;60850;52.502;13.426;2023-02-21T05:07:03;11.63;;;5.47;;
56927;SDS011;60850;52.502;13.426;2023-02-21T05:09:31;9.27;;;5.22;;
56927;SDS011;60850;52.502;13.426;2023-02-21T05:11:58;10.55;;;5.13;;
56927;SDS011;60850;52.502;13.426;2023-02-21T05:14:25;10.63;;;5.40;;
56927;SDS011;60850;52.502;13.426;2023-02-21T05:16:52;9.48;;;5.65;;
56927;SDS011;60850;52.502;13.426;2023-02-21T05:19:19;12.82;;;6.15;;
56927;SDS011;60850;52.502;13.426;2023-02-21T05:21:54;12.23;;;5.88;;
56927;SDS011;60850;52.502;13.426;2023-02-21T05:24:22;12.52;;;5.68;;
56927;SDS011;60850;52.502;13.426;2023-02-21T05:26:49;11.52;;;5.93;;
56927;SDS011;60850;52.502;13.426;2023-02-21T05:29:17;11.57;;;5.65;;
56927;SDS011;60850;52.502;13.426;2023-02-21T05:31:44;10.45;;;5.70;;
56927;SDS011;60850;52.502;13.426;2023-02-21T05:34:12;15.20;;;6.13;;
56927;SDS011;60850;52.502;13.426;2023-02-21T05:36:40;11.15;;;5.75;;
56927;SDS011;60850;52.502;13.426;2023-02-21T05:39:09;12.50;;;6.32;;
56927;SDS011;60850;52.502;13.426;2023-02-21T05:41:36;12.30;;;5.80;;
56927;SDS011;60850;52.502;13.426;2023-02-21T05:44:03;16.65;;;7.72;;
56927;SDS011;60850;52.502;13.426;2023-02-21T05:46:31;13.98;;;7.13;;
56927;SDS011;60850;52.502;13.426;2023-02-21T05:49:00;12.00;;;5.32;;
56927;SDS011;60850;52.502;13.426;2023-02-21T05:51:32;11.57;;;5.63;;
56927;SDS011;60850;52.502;13.426;2023-02-21T05:54:00;11.23;;;5.32;;
56927;SDS011;60850;52.502;13.426;2023-02-21T05:56:28;11.32;;;5.60;;
56927;SDS011;60850;52.502;13.426;2023-02-21T05:58:56;11.32;;;5.55;;
56927;SDS011;60850;52.502;13.426;2023-02-21T06:01:22;15.02;;;6.32;;
56927;SDS011;60850;52.502;13.426;2023-02-21T06:03:49;11.55;;;5.35;;
56927;SDS011;60850;52.502;13.426;2023-02-21T06:06:16;10.63;;;5.00;;
56927;SDS011;60850;52.502;13.426;2023-02-21T06:08:44;9.75;;;5.53;;
56927;SDS011;60850;52.502;13.426;2023-02-21T06:11:12;9.60;;;5.30;;
56927;SDS011;60850;52.502;13.426;2023-02-21T06:13:41;10.55;;;5.18;;
56927;SDS011;60850;52.502;13.426;2023-02-21T06:16:08;11.05;;;5.28;;
56927;SDS011;60850;52.502;13.426;2023-02-21T06:18:35;11.63;;;5.65;;
56927;SDS011;60850;52.502;13.426;2023-02-21T06:21:02;10.77;;;5.68;;
56927;SDS011;60850;52.502;13.426;2023-02-21T06:23:29;11.05;;;5.82;;
56927;SDS011;60850;52.502;13.426;2023-02-21T06:25:55;12.13;;;5.78;;
56927;SDS011;60850;52.502;13.426;2023-02-21T06:28:26;9.93;;;5.47;;
56927;SDS011;60850;52.502;13.426;2023-02-21T06:30:55;9.60;;;5.25;;
56927;SDS011;60850;52.502;13.426;2023-02-21T06:33:22;9.73;;;5.60;;
56927;SDS011;60850;52.502;13.426;2023-02-21T06:35:49;10.50;;;5.38;;
56927;SDS011;60850;52.502;13.426;2023-02-21T06:38:16;10.77;;;5.55;;
56927;SDS011;60850;52.502;13.426;2023-02-21T06:40:43;10.00;;;5.35;;
56927;SDS011;60850;52.502;13.426;2023-02-21T06:43:10;11.32;;;5.40;;
56927;SDS011;60850;52.502;13.426;2023-02-21T06:45:37;10.27;;;4.75;;
56927;SDS011;60850;52.502;13.426;2023-02-21T06:48:05;8.73;;;5.03;;
56927;SDS011;60850;52.502;13.426;2023-02-21T06:50:33;8.20;;;4.60;;
56927;SDS011;60850;52.502;13.426;2023-02-21T06:53:00;6.90;;;4.07;;
56927;SDS011;60850;52.502;13.426;2023-02-21T06:55:26;6.78;;;3.83;;
56927;SDS011;60850;52.502;13.426;2023-02-21T06:57:53;8.45;;;4.60;;
56927;SDS011;60850;52.502;13.426;2023-02-21T07:00:20;7.45;;;4.70;;
56927;SDS011;60850;52.502;13.426;2023-02-21T07:02:47;8.40;;;4.68;;
56927;SDS011;60850;52.502;13.426;2023-02-21T07:05:16;7.35;;;4.00;;
56927;SDS011;60850;52.502;13.426;2023-02-21T07:07:43;8.23;;;3.85;;
56927;SDS011;60850;52.502;13.426;2023-02-21T07:10:10;9.93;;;4.40;;
56927;SDS011;60850;52.502;13.426;2023-02-21T07:12:37;7.63;;;3.55;;
56927;SDS011;60850;52.502;13.426;2023-02-21T07:15:05;7.80;;;3.80;;
56927;SDS011;60850;52.502;13.426;2023-02-21T07:17:32;7.55;;;3.83;;
56927;SDS011;60850;52.502;13.426;2023-02-21T07:19:59;8.38;;;3.95;;
56927;SDS011;60850;52.502;13.426;2023-02-21T07:22:28;8.70;;;4.40;;
56927;SDS011;60850;52.502;13.426;2023-02-21T07:24:55;6.97;;;3.92;;
56927;SDS011;60850;52.502;13.426;2023-02-21T07:27:22;8.23;;;3.38;;
56927;SDS011;60850;52.502;13.426;2023-02-21T07:29:49;5.25;;;2.88;;
56927;SDS011;60850;52.502;13.426;2023-02-21T07:32:16;7.25;;;3.47;;
56927;SDS011;60850;52.502;13.426;2023-02-21T07:34:43;6.80;;;2.92;;
56927;SDS011;60850;52.502;13.426;2023-02-21T07:37:10;4.75;;;2.97;;
56927;SDS011;60850;52.502;13.426;2023-02-21T07:39:39;7.20;;;3.63;;
56927;SDS011;60850;52.502;13.426;2023-02-21T07:42:06;4.57;;;2.78;;
56927;SDS011;60850;52.502;13.426;2023-02-21T07:44:33;5.15;;;3.15;;
56927;SDS011;60850;52.502;13.426;2023-02-21T07:47:00;5.15;;;2.80;;
56927;SDS011;60850;52.502;13.426;2023-02-21T07:49:27;5.80;;;3.50;;
56927;SDS011;60850;52.502;13.426;2023-02-21T07:51:54;4.55;;;2.40;;
56927;SDS011;60850;52.502;13.426;2023-02-21T07:54:21;4.28;;;2.45;;
56927;SDS011;60850;52.502;13.426;2023-02-21T07:56:50;5.10;;;2.47;;
56927;SDS011;60850;52.502;13.426;2023-02-21T07:59:17;5.00;;;2.50;;
56927;SDS011;60850;52.502;13.426;2023-02-21T08:01:44;6.10;;;1.70;;
56927;SDS011;60850;52.502;13.426;2023-02-21T08:04:13;4.47;;;1.85;;
56927;SDS011;60850;52.502;13.426;2023-02-21T08:06:44;2.63;;;1.90;;
56927;SDS011;60850;52.502;13.426;2023-02-21T08:09:11;2.72;;;1.70;;
56927;SDS011;60850;52.502;13.426;2023-02-21T08:11:38;4.18;;;1.98;;
56927;SDS011;60850;52.502;13.426;2023-02-21T08:14:07;4.28;;;2.03;;
56927;SDS011;60850;52.502;13.426;2023-02-21T08:16:34;2.83;;;1.63;;
56927;SDS011;60850;52.502;13.426;2023-02-21T08:19:00;2.95;;;1.55;;
56927;SDS011;60850;52.502;13.426;2023-02-21T08:21:30;3.22;;;1.92;;
56927;SDS011;60850;52.502;13.426;2023-02-21T08:23:56;5.32;;;1.67;;
56927;SDS011;60850;52.502;13.426;2023-02-21T08:26:23;2.25;;;1.38;;
56927;SDS011;60850;52.502;13.426;2023-02-21T08:28:50;2.15;;;1.05;;
56927;SDS011;60850;52.502;13.426;2023-02-21T08:31:19;1.33;;;0.98;;
56927;SDS011;60850;52.502;13.426;2023-02-21T08:33:46;1.98;;;1.15;;
56927;SDS011;60850;52.502;13.426;2023-02-21T08:36:13;2.38;;;1.17;;
56927;SDS011;60850;52.502;13.426;2023-02-21T08:38:39;1.92;;;0.82;;
56927;SDS011;60850;52.502;13.426;2023-02-21T08:41:06;1.50;;;0.90;;
56927;SDS011;60850;52.502;13.426;2023-02-21T08:43:34;3.42;;;0.90;;
56927;SDS011;60850;52.502;13.426;2023-02-21T08:46:02;2.83;;;1.08;;
56927;SDS011;60850;52.502;13.426;2023-02-21T08:48:30;2.00;;;0.93;;
56927;SDS011;60850;52.502;13.426;2023-02-21T08:50:57;2.33;;;1.10;;
56927;SDS011;60850;52.502;13.426;2023-02-21T08:53:24;3.38;;;1.05;;
56927;SDS011;60850;52.502;13.426;2023-02-21T08:55:51;1.35;;;0.80;;
56927;SDS011;60850;52.502;13.426;2023-02-21T08:58:17;3.25;;;0.90;;
56927;SDS011;60850;52.502;13.426;2023-02-21T09:00:45;2.10;;;0.93;;
56927;SDS011;60850;52.502;13.426;2023-02-21T09:03:11;1.92;;;0.70;;
56927;SDS011;60850;52.502;13.426;2023-02-21T09:05:40;0.65;;;0.50;;
56927;SDS011;60850;52.502;13.426;2023-02-21T09:08:06;1.15;;;0.70;;
56927;SDS011;60850;52.502;13.426;2023-02-21T09:10:34;3.88;;;0.85;;
56927;SDS011;60850;52.502;13.426;2023-02-21T09:13:01;0.82;;;0.40;;
56927;SDS011;60850;52.502;13.426;2023-02-21T09:15:29;2.90;;;0.70;;
56927;SDS011;60850;52.502;13.426;2023-02-21T09:17:56;2.05;;;0.80;;
56927;SDS011;60850;52.502;13.426;2023-02-21T09:20:24;3.45;;;0.80;;
56927;SDS011;60850;52.502;13.426;2023-02-21T09:22:53;2.88;;;1.00;;
56927;SDS011;60850;52.502;13.426;2023-02-21T09:25:21;2.35;;;0.75;;
56927;SDS011;60850;52.502;13.426;2023-02-21T09:27:49;3.70;;;0.98;;
56927;SDS011;60850;52.502;13.426;2023-02-21T09:30:17;4.47;;;1.00;;
56927;SDS011;60850;52.502;13.426;2023-02-21T09:32:48;1.98;;;0.90;;
56927;SDS011;60850;52.502;13.426;2023-02-21T09:35:15;2.42;;;0.70;;
56927;SDS011;60850;52.502;13.426;2023-02-21T09:37:43;2.55;;;0.90;;
56927;SDS011;60850;52.502;13.426;2023-02-21T09:40:15;4.03;;;1.45;;
56927;SDS011;60850;52.502;13.426;2023-02-21T09:42:49;4.25;;;1.05;;
56927;SDS011;60850;52.502;13.426;2023-02-21T09:45:19;4.38;;;1.08;;
56927;SDS011;60850;52.502;13.426;2023-02-21T09:47:48;5.18;;;1.05;;
56927;SDS011;60850;52.502;13.426;2023-02-21T09:50:18;3.10;;;1.05;;
56927;SDS011;60850;52.502;13.426;2023-02-21T09:52:51;2.17;;;0.77;;
56927;SDS011;60850;52.502;13.426;2023-02-21T09:55:26;3.67;;;1.35;;
56927;SDS011;60850;52.502;13.426;2023-02-21T09:57:55;4.07;;;1.20;;
56927;SDS011;60850;52.502;13.426;2023-02-21T10:00:23;4.80;;;1.23;;
56927;SDS011;60850;52.502;13.426;2023-02-21T10:02:56;5.38;;;1.08;;
56927;SDS011;60850;52.502;13.426;2023-02-21T10:05:35;8.50;;;1.55;;
56927;SDS011;60850;52.502;13.426;2023-02-21T10:08:12;5.82;;;1.38;;
56927;SDS011;60850;52.502;13.426;2023-02-21T10:10:46;3.60;;;1.05;;
56927;SDS011;60850;52.502;13.426;2023-02-21T10:13:21;3.80;;;0.93;;
56927;SDS011;60850;52.502;13.426;2023-02-21T10:15:58;2.65;;;0.90;;
56927;SDS011;60850;52.502;13.426;2023-02-21T10:18:31;7.10;;;1.10;;
56927;SDS011;60850;52.502;13.426;2023-02-21T10:21:03;4.63;;;1.23;;
56927;SDS011;60850;52.502;13.426;2023-02-21T10:23:39;3.90;;;1.00;;
56927;SDS011;60850;52.502;13.426;2023-02-21T10:26:11;4.68;;;0.90;;
56927;SDS011;60850;52.502;13.426;2023-02-21T10:28:40;2.63;;;0.75;;
56927;SDS011;60850;52.502;13.426;2023-02-21T10:31:07;4.57;;;1.17;;
56927;SDS011;60850;52.502;13.426;2023-02-21T10:33:37;5.38;;;0.85;;
56927;SDS011;60850;52.502;13.426;2023-02-21T10:36:11;4.47;;;0.95;;
56927;SDS011;60850;52.502;13.426;2023-02-21T10:38:42;6.32;;;1.55;;
56927;SDS011;60850;52.502;13.426;2023-02-21T10:41:19;2.85;;;0.82;;
56927;SDS011;60850;52.502;13.426;2023-02-21T10:43:48;6.00;;;1.00;;
56927;SDS011;60850;52.502;13.426;2023-02-21T10:46:22;4.03;;;0.88;;
56927;SDS011;60850;52.502;13.426;2023-02-21T10:48:54;6.50;;;1.08;;
56927;SDS011;60850;52.502;13.426;2023-02-21T10:51:28;2.20;;;1.23;;
56927;SDS011;60850;52.502;13.426;2023-02-21T10:54:16;4.65;;;1.13;;
56927;SDS011;60850;52.502;13.426;2023-02-21T10:56:47;3.22;;;0.80;;
56927;SDS011;60850;52.502;13.426;2023-02-21T10:59:18;4.90;;;0.82;;
56927;SDS011;60850;52.502;13.426;2023-02-21T11:01:48;3.53;;;0.60;;
56927;SDS011;60850;52.502;13.426;2023-02-21T11:04:23;2.72;;;0.55;;
56927;SDS011;60850;52.502;13.426;2023-02-21T11:06:53;5.88;;;0.63;;
56927;SDS011;60850;52.502;13.426;2023-02-21T11:09:27;2.80;;;0.68;;
56927;SDS011;60850;52.502;13.426;2023-02-21T11:12:00;3.33;;;0.82;;
56927;SDS011;60850;52.502;13.426;2023-02-21T11:14:30;6.60;;;1.42;;
56927;SDS011;60850;52.502;13.426;2023-02-21T11:19:49;5.40;;;0.90;;
56927;SDS011;60850;52.502;13.426;2023-02-21T11:22:19;4.35;;;0.90;;
56927;SDS011;60850;52.502;13.426;2023-02-21T11:24:50;4.60;;;0.80;;
56927;SDS011;60850;52.502;13.426;2023-02-21T11:27:22;5.90;;;0.80;;
56927;SDS011;60850;52.502;13.426;2023-02-21T11:29:50;4.95;;;0.65;;
56927;SDS011;60850;52.502;13.426;2023-02-21T11:32:20;4.75;;;0.73;;
56927;SDS011;60850;52.502;13.426;2023-02-21T11:34:58;5.45;;;1.00;;
56927;SDS011;60850;52.502;13.426;2023-02-21T11:37:31;5.38;;;1.25;;
56927;SDS011;60850;52.502;13.426;2023-02-21T11:39:58;4.18;;;1.10;;
56927;SDS011;60850;52.502;13.426;2023-02-21T11:42:32;5.93;;;0.88;;
56927;SDS011;60850;52.502;13.426;2023-02-21T11:45:05;7.35;;;0.90;;
56927;SDS011;60850;52.502;13.426;2023-02-21T11:47:42;3.28;;;1.00;;
56927;SDS011;60850;52.502;13.426;2023-02-21T11:50:14;5.07;;;0.98;;
56927;SDS011;60850;52.502;13.426;2023-02-21T11:52:51;6.07;;;1.20;;
56927;SDS011;60850;52.502;13.426;2023-02-21T11:55:26;6.47;;;1.00;;
56927;SDS011;60850;52.502;13.426;2023-02-21T11:57:56;7.55;;;1.00;;
56927;SDS011;60850;52.502;13.426;2023-02-21T12:00:35;6.22;;;1.30;;
56927;SDS011;60850;52.502;13.426;2023-02-21T12:06:03;6.00;;;1.10;;
56927;SDS011;60850;52.502;13.426;2023-02-21T12:08:36;10.30;;;1.75;;
56927;SDS011;60850;52.502;13.426;2023-02-21T12:11:13;6.72;;;1.38;;
56927;SDS011;60850;52.502;13.426;2023-02-21T12:14:02;6.13;;;1.20;;
56927;SDS011;60850;52.502;13.426;2023-02-21T12:16:40;8.43;;;1.27;;
56927;SDS011;60850;52.502;13.426;2023-02-21T12:19:25;6.40;;;1.58;;
56927;SDS011;60850;52.502;13.426;2023-02-21T12:22:02;7.90;;;1.13;;
56927;SDS011;60850;52.502;13.426;2023-02-21T12:24:42;2.78;;;0.90;;
56927;SDS011;60850;52.502;13.426;2023-02-21T12:27:21;6.65;;;1.48;;
56927;SDS011;60850;52.502;13.426;2023-02-21T12:30:03;8.48;;;1.08;;
56927;SDS011;60850;52.502;13.426;2023-02-21T12:32:47;11.50;;;1.50;;
56927;SDS011;60850;52.502;13.426;2023-02-21T12:35:29;6.00;;;1.48;;
56927;SDS011;60850;52.502;13.426;2023-02-21T12:38:19;6.78;;;1.50;;
56927;SDS011;60850;52.502;13.426;2023-02-21T12:40:57;6.72;;;1.08;;
56927;SDS011;60850;52.502;13.426;2023-02-21T12:43:37;6.50;;;1.38;;
56927;SDS011;60850;52.502;13.426;2023-02-21T12:46:18;6.78;;;1.60;;
56927;SDS011;60850;52.502;13.426;2023-02-21T12:48:56;8.40;;;1.63;;
56927;SDS011;60850;52.502;13.426;2023-02-21T12:51:30;7.32;;;1.35;;
56927;SDS011;60850;52.502;13.426;2023-02-21T12:54:02;6.40;;;1.45;;
56927;SDS011;60850;52.502;13.426;2023-02-21T12:56:32;6.50;;;1.52;;
56927;SDS011;60850;52.502;13.426;2023-02-21T12:59:05;9.20;;;1.48;;
56927;SDS011;60850;52.502;13.426;2023-02-21T13:01:40;10.85;;;1.63;;
56927;SDS011;60850;52.502;13.426;2023-02-21T13:04:14;11.10;;;1.58;;
56927;SDS011;60850;52.502;13.426;2023-02-21T13:06:50;4.82;;;1.02;;
56927;SDS011;60850;52.502;13.426;2023-02-21T13:09:23;6.15;;;1.65;;
56927;SDS011;60850;52.502;13.426;2023-02-21T13:11:58;8.68;;;1.40;;
56927;SDS011;60850;52.502;13.426;2023-02-21T13:14:31;10.65;;;1.40;;
56927;SDS011;60850;52.502;13.426;2023-02-21T13:17:04;6.53;;;1.00;;
56927;SDS011;60850;52.502;13.426;2023-02-21T13:19:37;5.53;;;1.30;;
56927;SDS011;60850;52.502;13.426;2023-02-21T13:25:15;12.90;;;1.23;;
56927;SDS011;60850;52.502;13.426;2023-02-21T13:27:52;5.07;;;1.20;;
56927;SDS011;60850;52.502;13.426;2023-02-21T13:30:24;7.32;;;1.50;;
56927;SDS011;60850;52.502;13.426;2023-02-21T13:33:04;12.40;;;1.88;;
56927;SDS011;60850;52.502;13.426;2023-02-21T13:35:32;7.97;;;1.38;;
56927;SDS011;60850;52.502;13.426;2023-02-21T13:38:03;10.25;;;1.65;;
56927;SDS011;60850;52.502;13.426;2023-02-21T13:40:35;8.98;;;1.25;;
56927;SDS011;60850;52.502;13.426;2023-02-21T13:43:08;5.60;;;1.20;;
56927;SDS011;60850;52.502;13.426;2023-02-21T13:45:38;8.45;;;1.15;;
56927;SDS011;60850;52.502;13.426;2023-02-21T13:50:58;10.32;;;1.17;;
56927;SDS011;60850;52.502;13.426;2023-02-21T13:53:28;10.60;;;1.65;;
56927;SDS011;60850;52.502;13.426;2023-02-21T13:56:11;8.38;;;1.88;;
56927;SDS011;60850;52.502;13.426;2023-02-21T13:58:43;9.02;;;1.70;;
56927;SDS011;60850;52.502;13.426;2023-02-21T14:07:37;11.52;;;1.60;;
56927;SDS011;60850;52.502;13.426;2023-02-21T14:10:14;5.75;;;1.38;;
56927;SDS011;60850;52.502;13.426;2023-02-21T14:12:50;11.63;;;1.52;;
56927;SDS011;60850;52.502;13.426;2023-02-21T14:15:20;9.45;;;1.60;;
56927;SDS011;60850;52.502;13.426;2023-02-21T14:17:47;9.95;;;1.80;;
56927;SDS011;60850;52.502;13.426;2023-02-21T14:20:20;6.22;;;1.30;;
56927;SDS011;60850;52.502;13.426;2023-02-21T14:22:49;11.20;;;1.30;;
56927;SDS011;60850;52.502;13.426;2023-02-21T14:25:20;7.22;;;1.05;;
56927;SDS011;60850;52.502;13.426;2023-02-21T14:27:49;7.88;;;1.50;;
56927;SDS011;60850;52.502;13.426;2023-02-21T14:30:24;10.30;;;1.58;;
56927;SDS011;60850;52.502;13.426;2023-02-21T14:33:10;3.72;;;0.82;;
56927;SDS011;60850;52.502;13.426;2023-02-21T14:35:51;10.52;;;1.83;;
56927;SDS011;60850;52.502;13.426;2023-02-21T14:38:26;10.07;;;1.70;;
56927;SDS011;60850;52.502;13.426;2023-02-21T14:40:58;6.15;;;1.60;;
56927;SDS011;60850;52.502;13.426;2023-02-21T14:49:44;6.97;;;1.70;;
56927;SDS011;60850;52.502;13.426;2023-02-21T14:52:25;14.05;;;1.70;;
56927;SDS011;60850;52.502;13.426;2023-02-21T14:58:18;8.65;;;1.73;;
56927;SDS011;60850;52.502;13.426;2023-02-21T15:01:05;12.98;;;1.45;;
56927;SDS011;60850;52.502;13.426;2023-02-21T15:03:41;9.30;;;1.45;;
56927;SDS011;60850;52.502;13.426;2023-02-21T15:06:13;9.60;;;1.40;;
56927;SDS011;60850;52.502;13.426;2023-02-21T15:08:47;10.13;;;2.00;;
56927;SDS011;60850;52.502;13.426;2023-02-21T15:11:23;10.60;;;2.58;;
56927;SDS011;60850;52.502;13.426;2023-02-21T15:16:47;9.43;;;1.77;;
56927;SDS011;60850;52.502;13.426;2023-02-21T15:19:20;11.07;;;1.40;;
56927;SDS011;60850;52.502;13.426;2023-02-21T15:24:33;11.63;;;1.60;;
56927;SDS011;60850;52.502;13.426;2023-02-21T15:27:07;8.02;;;1.63;;
56927;SDS011;60850;52.502;13.426;2023-02-21T15:29:35;8.27;;;1.42;;
56927;SDS011;60850;52.502;13.426;2023-02-21T15:32:02;8.80;;;1.73;;
56927;SDS011;60850;52.502;13.426;2023-02-21T15:34:31;11.32;;;2.08;;
56927;SDS011;60850;52.502;13.426;2023-02-21T15:37:03;10.40;;;1.70;;
56927;SDS011;60850;52.502;13.426;2023-02-21T15:39:43;8.65;;;1.20;;
56927;SDS011;60850;52.502;13.426;2023-02-21T15:42:14;14.30;;;2.30;;
56927;SDS011;60850;52.502;13.426;2023-02-21T15:44:44;11.55;;;1.58;;
56927;SDS011;60850;52.502;13.426;2023-02-21T15:47:17;8.98;;;1.50;;
56927;SDS011;60850;52.502;13.426;2023-02-21T15:49:50;8.90;;;1.80;;